Time;durP1;ratioP1;P1;durP2;ratioP2;P2;SDS_P1;SDS_P2;PMS_P1;PMS_P2;Temp;Humidity;BMP_temperature;BMP_pressure;BME280_temperature;BME280_humidity;BME280_pressure;Samples;Min_cycle;Max_cycle;Signal;HPM_P1;HPM_P2
2022/07/14 00:01:32;;;;;;;5.90;1.65;;;;;;;12.45;100.00;98931.88;5127971;27;20039;-90
2022/07/14 00:04:00;;;;;;;4.47;1.33;;;;;;;12.50;100.00;98941.41;5112763;28;20050;-89
2022/07/14 00:06:25;;;;;;;5.65;1.52;;;;;;;12.43;100.00;98933.66;5100641;28;20034;-90
2022/07/14 00:08:51;;;;;;;5.13;1.30;;;;;;;12.45;100.00;98931.03;5097799;28;20032;-90
2022/07/14 00:11:16;;;;;;;6.68;2.00;;;;;;;12.43;100.00;98924.97;5096290;28;20392;-89
2022/07/14 00:13:42;;;;;;;5.90;1.48;;;;;;;12.41;100.00;98916.28;5103886;28;20567;-90
2022/07/14 00:16:07;;;;;;;5.60;1.40;;;;;;;12.41;100.00;98922.34;5097538;28;20032;-90
2022/07/14 00:18:33;;;;;;;5.47;1.40;;;;;;;12.49;100.00;98921.41;5099232;28;20328;-90
2022/07/14 00:20:58;;;;;;;6.50;1.60;;;;;;;12.56;100.00;98920.44;5099611;28;20027;-90
2022/07/14 00:23:24;;;;;;;6.65;1.50;;;;;;;12.51;100.00;98912.66;5097082;28;20475;-89
2022/07/14 00:25:51;;;;;;;5.55;1.30;;;;;;;12.54;100.00;98911.72;5096987;28;20043;-90
2022/07/14 00:28:18;;;;;;;5.72;1.50;;;;;;;12.56;100.00;98912.56;5095407;28;20043;-90
2022/07/14 00:30:45;;;;;;;6.22;1.60;;;;;;;12.56;100.00;98913.44;5096191;28;20028;-89
2022/07/14 00:33:11;;;;;;;5.68;1.48;;;;;;;12.62;100.00;98915.09;5097941;28;20027;-89
2022/07/14 00:35:37;;;;;;;6.70;1.67;;;;;;;12.59;100.00;98913.38;5104375;28;20042;-90
2022/07/14 00:38:05;;;;;;;5.05;1.30;;;;;;;12.50;100.00;98897.84;5101322;28;20126;-89
2022/07/14 00:40:30;;;;;;;5.03;1.40;;;;;;;12.69;100.00;98913.25;5103354;28;20466;-90
2022/07/14 00:42:56;;;;;;;7.03;1.63;;;;;;;12.74;100.00;98911.44;5095340;28;20040;-90
2022/07/14 00:45:22;;;;;;;5.35;1.50;;;;;;;12.71;100.00;98911.50;5098955;28;20028;-90
2022/07/14 00:47:48;;;;;;;4.65;1.30;;;;;;;12.65;100.00;98915.06;5100434;28;20476;-89
2022/07/14 00:50:16;;;;;;;5.88;1.60;;;;;;;12.58;100.00;98908.16;5098563;28;20027;-90
2022/07/14 00:52:43;;;;;;;4.88;1.40;;;;;;;12.61;100.00;98898.53;5099547;28;20045;-90
2022/07/14 00:55:12;;;;;;;6.93;1.65;;;;;;;12.55;100.00;98903.00;5099838;28;20511;-89
2022/07/14 00:57:38;;;;;;;6.30;1.50;;;;;;;12.52;100.00;98903.91;5099609;28;20072;-89
2022/07/14 01:00:09;;;;;;;6.85;1.30;;;;;;;12.45;100.00;98899.66;5096594;28;20789;-89
2022/07/14 01:02:35;;;;;;;6.63;1.40;;;;;;;12.54;100.00;98901.25;5101240;28;20038;-89
2022/07/14 01:05:00;;;;;;;6.45;1.50;;;;;;;12.63;100.00;98901.13;5099397;28;20027;-89
2022/07/14 01:07:26;;;;;;;5.43;1.35;;;;;;;12.50;100.00;98903.06;5098343;28;20027;-90
2022/07/14 01:09:51;;;;;;;5.65;1.48;;;;;;;12.46;100.00;98893.53;5094906;27;20046;-90
2022/07/14 01:12:17;;;;;;;7.15;1.70;;;;;;;12.40;100.00;98899.72;5099704;28;20388;-89
2022/07/14 01:14:43;;;;;;;6.10;1.42;;;;;;;12.28;100.00;98887.66;5094422;28;20043;-89
2022/07/14 01:17:09;;;;;;;5.97;1.58;;;;;;;12.31;100.00;98894.59;5095780;28;20057;-90
2022/07/14 01:19:35;;;;;;;6.00;1.65;;;;;;;12.30;100.00;98887.63;5104598;27;20031;-89
2022/07/14 01:22:01;;;;;;;7.07;1.80;;;;;;;12.24;100.00;98888.59;5100699;28;20035;-90
2022/07/14 01:24:28;;;;;;;6.68;1.50;;;;;;;12.23;100.00;98894.72;5096671;28;20051;-90
2022/07/14 01:26:54;;;;;;;7.05;1.50;;;;;;;12.28;100.00;98890.28;5094158;28;20028;-89
2022/07/14 01:29:20;;;;;;;7.68;1.65;;;;;;;12.39;100.00;98887.53;5098129;28;20039;-90
2022/07/14 01:31:46;;;;;;;5.53;1.65;;;;;;;12.22;100.00;98890.38;5096503;28;20034;-90
2022/07/14 01:34:12;;;;;;;6.22;1.52;;;;;;;12.25;100.00;98898.19;5095671;28;20042;-89
2022/07/14 01:36:38;;;;;;;5.50;1.50;;;;;;;12.26;100.00;98893.78;5097757;28;20036;-90
2022/07/14 01:39:06;;;;;;;5.07;1.20;;;;;;;12.34;100.00;98893.72;5099010;28;20039;-90
2022/07/14 01:41:32;;;;;;;6.85;1.60;;;;;;;12.49;100.00;98896.09;5093838;28;20034;-88
2022/07/14 01:43:58;;;;;;;6.60;1.60;;;;;;;12.48;100.00;98894.38;5096435;28;20023;-90
2022/07/14 01:46:24;;;;;;;6.00;1.40;;;;;;;12.57;100.00;98893.38;5096488;28;20484;-89
2022/07/14 01:48:49;;;;;;;5.25;1.48;;;;;;;12.42;100.00;98894.47;5093582;28;20049;-90
2022/07/14 01:51:15;;;;;;;5.75;1.50;;;;;;;12.49;100.00;98884.78;5091312;28;20038;-89
2022/07/14 01:53:43;;;;;;;6.70;1.58;;;;;;;12.45;100.00;98897.03;5094590;28;20483;-90
2022/07/14 01:56:10;;;;;;;6.90;1.70;;;;;;;12.58;100.00;98880.28;5094203;28;20047;-89
2022/07/14 01:58:35;;;;;;;5.40;1.50;;;;;;;12.21;100.00;98887.78;5094658;28;20031;-90
2022/07/14 02:03:46;;;;;;;6.97;1.52;;;;;;;12.48;100.00;98881.28;5088965;28;20552;-90
2022/07/14 02:06:12;;;;;;;5.72;1.20;;;;;;;12.41;100.00;98875.28;5089343;28;20581;-88
2022/07/14 02:08:38;;;;;;;7.30;1.60;;;;;;;12.57;100.00;98873.31;5098430;28;20027;-90
2022/07/14 02:13:48;;;;;;;5.65;1.40;;;;;;;12.52;100.00;98877.72;5098690;28;20046;-90
2022/07/14 02:16:14;;;;;;;6.63;1.65;;;;;;;12.67;100.00;98871.41;5093337;28;20024;-89
2022/07/14 02:18:39;;;;;;;6.88;1.48;;;;;;;12.63;100.00;98869.72;5090365;28;20081;-89
2022/07/14 02:21:05;;;;;;;8.43;1.50;;;;;;;12.54;100.00;98878.59;5094351;28;20138;-90
2022/07/14 02:23:31;;;;;;;5.43;1.65;;;;;;;12.59;100.00;98881.97;5093855;28;20161;-89
2022/07/14 02:25:56;;;;;;;7.25;1.67;;;;;;;12.44;100.00;98877.88;5094037;28;20481;-90
2022/07/14 02:28:22;;;;;;;6.18;1.70;;;;;;;12.50;100.00;98878.63;5092765;28;20519;-90
2022/07/14 02:30:48;;;;;;;5.60;1.60;;;;;;;12.46;100.00;98880.47;5092563;28;20466;-89
2022/07/14 02:33:14;;;;;;;6.25;1.60;;;;;;;12.57;100.00;98875.06;5099120;28;20027;-89
2022/07/14 02:35:39;;;;;;;5.25;1.70;;;;;;;12.45;100.00;98881.34;5092973;28;20035;-90
2022/07/14 02:38:05;;;;;;;5.65;1.40;;;;;;;12.43;100.00;98877.91;5110083;27;20119;-89
2022/07/14 02:40:32;;;;;;;8.25;1.60;;;;;;;12.22;100.00;98884.25;5091659;28;20461;-89
2022/07/14 02:43:32;;;;;;;7.35;1.77;;;;;;;12.46;100.00;98877.84;5095603;28;20114;-90
2022/07/14 02:45:59;;;;;;;9.45;1.67;;;;;;;12.51;100.00;98876.03;5093789;28;20050;-90
2022/07/14 02:48:24;;;;;;;5.97;1.70;;;;;;;12.53;100.00;98869.00;5089795;28;20043;-89
2022/07/14 02:50:50;;;;;;;8.32;1.80;;;;;;;12.60;100.00;98880.25;5095523;28;20399;-89
2022/07/14 02:53:16;;;;;;;8.27;2.10;;;;;;;12.58;100.00;98869.81;5095754;28;20464;-89
2022/07/14 02:55:41;;;;;;;8.85;1.77;;;;;;;12.58;100.00;98876.78;5092872;28;20047;-90
2022/07/14 02:58:07;;;;;;;9.52;1.70;;;;;;;12.62;100.00;98879.34;5091024;28;20064;-90
2022/07/14 03:00:32;;;;;;;5.45;1.60;;;;;;;12.76;100.00;98880.84;5097103;28;20043;-89
2022/07/14 03:03:00;;;;;;;7.40;1.92;;;;;;;12.49;100.00;98877.78;5094107;28;20024;-89
2022/07/14 03:05:27;;;;;;;7.78;1.70;;;;;;;12.61;100.00;98879.38;5093193;28;20404;-91
2022/07/14 03:07:53;;;;;;;7.38;1.85;;;;;;;12.52;100.00;98885.59;5097304;28;20337;-90
2022/07/14 03:10:18;;;;;;;6.63;2.00;;;;;;;12.57;100.00;98881.16;5096146;28;20460;-88
2022/07/14 03:12:44;;;;;;;5.95;1.80;;;;;;;12.56;100.00;98879.41;5094747;28;20023;-89
2022/07/14 03:15:10;;;;;;;7.40;1.85;;;;;;;12.64;100.00;98880.16;5097957;28;20028;-89
2022/07/14 03:17:38;;;;;;;5.93;1.65;;;;;;;12.65;100.00;98878.44;5095219;28;20043;-90
2022/07/14 03:20:06;;;;;;;7.30;1.85;;;;;;;12.63;100.00;98894.13;5095544;28;20035;-90
2022/07/14 03:22:32;;;;;;;8.85;2.10;;;;;;;12.73;100.00;98891.38;5093946;28;20030;-90
2022/07/14 03:24:58;;;;;;;7.82;2.30;;;;;;;12.61;100.00;98893.31;5098159;28;20491;-89
2022/07/14 03:27:23;;;;;;;8.68;2.58;;;;;;;12.76;100.00;98893.94;5098672;28;20080;-89
2022/07/14 03:29:49;;;;;;;8.55;2.28;;;;;;;12.68;100.00;98883.63;5090751;28;20036;-89
2022/07/14 03:32:14;;;;;;;8.25;2.30;;;;;;;12.71;100.00;98883.56;5098794;28;20488;-90
2022/07/14 03:34:40;;;;;;;7.68;2.42;;;;;;;12.69;100.00;98882.69;5101383;28;20698;-90
2022/07/14 03:37:05;;;;;;;9.38;2.47;;;;;;;12.79;100.00;98875.59;5098061;28;20471;-90
2022/07/14 03:39:31;;;;;;;8.05;2.20;;;;;;;13.01;100.00;98872.59;5093810;28;20027;-90
2022/07/14 03:41:56;;;;;;;7.45;2.72;;;;;;;13.02;100.00;98871.72;5093168;28;20589;-90
2022/07/14 03:44:22;;;;;;;9.40;2.70;;;;;;;12.95;100.00;98873.56;5095147;28;20027;-90
2022/07/14 03:46:47;;;;;;;6.82;2.28;;;;;;;12.96;100.00;98863.09;5098796;28;20609;-90
2022/07/14 03:49:13;;;;;;;7.00;2.33;;;;;;;12.97;100.00;98870.06;5101958;28;20356;-88
2022/07/14 03:51:42;;;;;;;6.60;2.22;;;;;;;13.03;100.00;98870.84;5102555;28;20031;-89
2022/07/14 03:54:08;;;;;;;10.05;2.67;;;;;;;13.08;100.00;98874.22;5099874;28;20173;-90
2022/07/14 03:56:36;;;;;;;9.13;2.58;;;;;;;13.22;100.00;98873.97;5098991;28;20122;-90
2022/07/14 03:59:03;;;;;;;7.45;2.05;;;;;;;13.20;100.00;98870.53;5102089;28;20026;-90
2022/07/14 04:01:29;;;;;;;7.00;2.13;;;;;;;13.25;100.00;98861.72;5098060;28;20068;-89
2022/07/14 04:03:54;;;;;;;10.18;2.03;;;;;;;13.26;100.00;98852.97;5104401;28;20051;-89
2022/07/14 04:06:21;;;;;;;6.90;1.70;;;;;;;13.40;100.00;98860.59;5101989;27;20027;-90
2022/07/14 04:08:47;;;;;;;8.82;1.80;;;;;;;13.52;100.00;98862.09;5096757;28;20027;-90
2022/07/14 04:11:13;;;;;;;7.28;1.92;;;;;;;13.41;100.00;98859.69;5098766;28;20042;-90
2022/07/14 04:13:39;;;;;;;6.15;1.80;;;;;;;13.34;100.00;98862.44;5096012;28;20024;-90
2022/07/14 04:16:05;;;;;;;9.85;1.80;;;;;;;13.57;100.00;98849.78;5098425;28;20552;-90
2022/07/14 04:18:30;;;;;;;8.82;1.80;;;;;;;13.70;100.00;98858.25;5100921;28;20067;-90
2022/07/14 04:20:57;;;;;;;7.45;1.80;;;;;;;13.67;100.00;98850.47;5101596;28;20562;-90
2022/07/14 04:23:23;;;;;;;7.90;1.60;;;;;;;13.64;100.00;98855.78;5116427;27;20027;-90
2022/07/14 04:25:49;;;;;;;6.55;1.80;;;;;;;13.56;100.00;98852.44;5102066;28;20392;-89
2022/07/14 04:28:15;;;;;;;7.40;1.95;;;;;;;13.55;100.00;98859.41;5096637;28;20059;-89
2022/07/14 04:30:41;;;;;;;7.82;1.42;;;;;;;13.55;100.00;98866.44;5103835;28;20032;-90
2022/07/14 04:33:07;;;;;;;8.93;2.28;;;;;;;13.70;100.00;98871.38;5102575;28;20080;-89
2022/07/14 04:38:56;;;;;;;9.10;1.60;;;;;;;13.65;100.00;98854.84;5101233;28;20093;-90
2022/07/14 04:41:23;;;;;;;6.65;1.60;;;;;;;13.78;100.00;98848.50;5105171;28;20122;-89
2022/07/14 04:43:50;;;;;;;6.57;1.65;;;;;;;13.83;100.00;98851.88;5098400;28;20099;-90
2022/07/14 04:46:15;;;;;;;4.72;1.40;;;;;;;13.72;100.00;98850.38;5104882;28;20863;-90
2022/07/14 04:54:09;;;;;;;7.32;1.50;;;;;;;13.87;100.00;98855.28;5103044;28;20099;-90
2022/07/14 04:56:34;;;;;;;6.28;1.70;;;;;;;13.92;100.00;98850.81;5104003;28;20036;-90
2022/07/14 04:59:00;;;;;;;6.57;1.42;;;;;;;13.94;100.00;98846.41;5101204;28;20027;-91
2022/07/14 05:01:25;;;;;;;5.55;1.52;;;;;;;14.06;100.00;98845.28;5106400;28;20024;-90
2022/07/14 05:03:51;;;;;;;7.03;1.60;;;;;;;14.10;100.00;98849.56;5100630;28;20753;-90
2022/07/14 05:06:18;;;;;;;6.20;1.60;;;;;;;14.20;100.00;98855.47;5103312;28;20520;-90
2022/07/14 05:08:44;;;;;;;7.63;1.75;;;;;;;14.13;100.00;98853.88;5100895;28;20023;-90
2022/07/14 05:11:10;;;;;;;6.07;1.50;;;;;;;14.16;100.00;98848.56;5094663;28;20059;-90
2022/07/14 05:13:37;;;;;;;8.07;1.88;;;;;;;14.03;100.00;98845.34;5103085;28;20119;-89
2022/07/14 05:16:03;;;;;;;9.80;2.03;;;;;;;14.02;100.00;98846.25;5099837;28;20020;-90
2022/07/14 05:18:29;;;;;;;10.10;1.63;;;;;;;14.15;100.00;98842.47;5098440;28;20074;-90
2022/07/14 05:20:55;;;;;;;7.32;1.60;;;;;;;14.19;100.00;98838.00;5097576;28;20031;-91
2022/07/14 05:23:20;;;;;;;8.65;1.88;;;;;;;14.07;100.00;98833.03;5099477;28;20155;-90
2022/07/14 05:25:46;;;;;;;10.52;1.95;;;;;;;13.71;100.00;98828.53;5103956;28;20123;-90
2022/07/14 05:28:12;;;;;;;9.07;2.30;;;;;;;13.58;100.00;98834.91;5101260;28;20121;-90
2022/07/14 05:30:38;;;;;;;9.73;2.10;;;;;;;13.71;100.00;98861.72;5098847;28;20028;-90
2022/07/14 05:33:04;;;;;;;9.30;2.17;;;;;;;13.86;100.00;98876.28;5101209;28;20069;-91
2022/07/14 05:35:30;;;;;;;8.77;2.10;;;;;;;13.82;100.00;98880.75;5097881;28;20032;-91
2022/07/14 05:37:55;;;;;;;6.35;1.80;;;;;;;14.04;100.00;98875.91;5092891;28;20464;-90
2022/07/14 05:40:21;;;;;;;9.02;1.98;;;;;;;13.92;100.00;98873.56;5093990;28;20123;-90
2022/07/14 05:42:47;;;;;;;7.43;2.13;;;;;;;13.98;100.00;98868.19;5100536;28;20112;-90
2022/07/14 05:45:12;;;;;;;7.82;2.00;;;;;;;13.89;100.00;98866.63;5097519;28;20024;-90
2022/07/14 05:47:41;;;;;;;7.47;1.80;;;;;;;13.94;100.00;98867.38;5096838;28;20027;-90
2022/07/14 05:50:07;;;;;;;12.00;2.00;;;;;;;14.10;100.00;98870.53;5097600;28;20085;-90
2022/07/14 05:52:33;;;;;;;6.55;2.20;;;;;;;14.09;100.00;98858.31;5096823;28;20483;-91
2022/07/14 05:54:59;;;;;;;7.38;2.28;;;;;;;14.08;100.00;98863.59;5101271;27;20047;-92
2022/07/14 05:57:24;;;;;;;7.93;2.30;;;;;;;14.15;100.00;98860.81;5100259;28;20043;-90
2022/07/14 05:59:50;;;;;;;7.68;2.22;;;;;;;14.19;100.00;98871.25;5097130;28;20039;-90
2022/07/14 06:02:15;;;;;;;7.97;2.30;;;;;;;14.15;100.00;98876.56;5098046;28;20024;-90
2022/07/14 06:04:41;;;;;;;9.20;2.80;;;;;;;14.19;100.00;98872.09;5091935;28;20153;-90
2022/07/14 06:07:08;;;;;;;8.75;2.50;;;;;;;14.32;100.00;98865.69;5094955;28;20028;-90
2022/07/14 06:09:38;;;;;;;8.45;2.58;;;;;;;14.28;100.00;98869.28;5097733;28;20090;-89
2022/07/14 06:12:05;;;;;;;7.63;2.65;;;;;;;14.25;100.00;98865.84;5093671;28;20023;-89
2022/07/14 06:14:31;;;;;;;9.70;3.15;;;;;;;14.30;100.00;98877.97;5098535;28;20036;-90
2022/07/14 06:16:57;;;;;;;11.65;2.88;;;;;;;14.21;100.00;98878.19;5092731;28;20035;-89
2022/07/14 06:19:23;;;;;;;8.05;2.40;;;;;;;14.23;100.00;98886.88;5096932;28;20039;-89
2022/07/14 06:21:49;;;;;;;10.07;2.92;;;;;;;14.32;100.00;98881.44;5095023;28;20028;-89
2022/07/14 06:24:14;;;;;;;11.25;2.75;;;;;;;14.31;100.00;98878.84;5094744;28;20036;-90
2022/07/14 06:26:40;;;;;;;10.20;3.10;;;;;;;14.09;100.00;98895.03;5100489;28;20042;-89
2022/07/14 06:29:06;;;;;;;8.07;2.75;;;;;;;14.26;100.00;98883.31;5098782;28;20122;-90
2022/07/14 06:31:34;;;;;;;10.73;3.10;;;;;;;14.28;100.00;98886.75;5096191;28;20038;-89
2022/07/14 06:34:00;;;;;;;11.98;3.35;;;;;;;14.17;100.00;98879.16;5093923;28;20052;-88
2022/07/14 06:36:26;;;;;;;9.60;3.55;;;;;;;14.30;100.00;98875.34;5099439;28;20027;-89
2022/07/14 06:38:51;;;;;;;11.95;3.45;;;;;;;14.40;100.00;98877.75;5093760;28;20042;-89
2022/07/14 06:41:20;;;;;;;10.93;3.72;;;;;;;14.27;100.00;98872.78;5091544;28;20023;-90
2022/07/14 06:43:46;;;;;;;12.50;3.15;;;;;;;14.31;100.00;98881.47;5098653;28;20039;-89
2022/07/14 06:46:18;;;;;;;10.27;3.13;;;;;;;14.22;100.00;98887.75;5092742;28;20034;-90
2022/07/14 06:48:44;;;;;;;9.02;3.20;;;;;;;14.39;100.00;98884.78;5096158;28;20042;-89
2022/07/14 06:51:10;;;;;;;9.10;3.30;;;;;;;14.26;100.00;98892.03;5096740;28;20023;-90
2022/07/14 06:53:37;;;;;;;10.85;3.20;;;;;;;14.23;100.00;98896.50;5098449;28;20027;-90
2022/07/14 06:56:06;;;;;;;10.48;3.38;;;;;;;14.21;100.00;98887.78;5099514;28;20048;-91
2022/07/14 06:59:10;;;;;;;10.70;3.40;;;;;;;14.46;100.00;98895.97;5116432;28;20039;-89
2022/07/14 07:01:37;;;;;;;9.43;3.22;;;;;;;14.76;100.00;98888.34;5097114;28;20027;-89
2022/07/14 07:04:04;;;;;;;8.77;3.10;;;;;;;14.92;100.00;98891.44;5097205;28;20035;-89
2022/07/14 07:06:44;;;;;;;9.38;2.80;;;;;;;14.73;100.00;98886.66;5096150;28;20055;-91
2022/07/14 07:09:15;;;;;;;10.18;3.10;;;;;;;14.88;100.00;98890.66;5091291;28;20425;-90
2022/07/14 07:11:42;;;;;;;9.60;2.72;;;;;;;15.04;100.00;98891.13;5099375;28;20036;-91
2022/07/14 07:14:08;;;;;;;9.18;2.45;;;;;;;15.17;100.00;98902.19;5096985;28;20076;-90
2022/07/14 07:16:33;;;;;;;10.10;2.92;;;;;;;15.09;100.00;98896.31;5093725;28;20023;-91
2022/07/14 07:18:59;;;;;;;10.70;2.70;;;;;;;15.17;100.00;98908.31;5102154;28;20030;-90
2022/07/14 07:21:25;;;;;;;15.10;3.20;;;;;;;15.24;100.00;98905.53;5105014;28;20027;-92
2022/07/14 07:23:51;;;;;;;11.38;2.78;;;;;;;15.58;100.00;98905.50;5101056;28;20089;-91
2022/07/14 07:26:21;;;;;;;8.95;2.72;;;;;;;15.60;100.00;98908.97;5108363;28;20309;-92
2022/07/14 07:28:47;;;;;;;10.35;2.70;;;;;;;15.87;100.00;98909.13;5099760;28;20030;-92
2022/07/14 07:31:13;;;;;;;14.50;2.75;;;;;;;16.11;100.00;98911.97;5098633;28;20407;-93
2022/07/14 07:33:39;;;;;;;9.10;2.60;;;;;;;15.77;100.00;98916.41;5105477;28;20035;-94
2022/07/14 07:36:05;;;;;;;10.55;2.60;;;;;;;16.00;100.00;98907.88;5107288;28;20088;-92
2022/07/14 07:38:31;;;;;;;8.80;2.70;;;;;;;16.30;100.00;98907.88;5105126;28;20033;-91
2022/07/14 07:41:03;;;;;;;11.80;2.42;;;;;;;16.04;100.00;98898.97;5108965;28;20036;-91
2022/07/14 07:43:31;;;;;;;9.38;2.45;;;;;;;15.80;100.00;98899.72;5102299;28;20122;-92
2022/07/14 07:46:12;;;;;;;12.57;2.88;;;;;;;15.82;100.00;98900.50;5107826;28;20047;-93
2022/07/14 07:48:55;;;;;;;9.45;2.10;;;;;;;16.11;100.00;98912.81;5101364;28;20034;-92
2022/07/14 07:51:21;;;;;;;7.43;2.03;;;;;;;15.74;100.00;98900.72;5104163;28;20031;-92
2022/07/14 07:53:50;;;;;;;9.38;1.85;;;;;;;15.63;100.00;98911.50;5103650;28;20403;-92
2022/07/14 07:56:24;;;;;;;9.25;2.45;;;;;;;15.66;100.00;98905.31;5101409;28;20031;-92
2022/07/14 07:58:50;;;;;;;9.13;3.00;;;;;;;15.62;100.00;98911.56;5105655;28;20459;-92
2022/07/14 08:01:17;;;;;;;10.25;2.30;;;;;;;15.13;100.00;98911.94;5104966;28;20027;-91
2022/07/14 08:03:44;;;;;;;10.23;2.30;;;;;;;14.98;100.00;98920.19;5100040;28;20027;-93
2022/07/14 08:06:11;;;;;;;8.82;2.38;;;;;;;15.00;100.00;98921.88;5106111;28;20080;-92
2022/07/14 08:08:37;;;;;;;9.45;2.58;;;;;;;14.77;100.00;98929.44;5105181;28;20424;-92
2022/07/14 08:11:04;;;;;;;11.30;2.72;;;;;;;14.92;100.00;98928.19;5106366;28;20027;-92
2022/07/14 08:13:31;;;;;;;8.20;2.60;;;;;;;14.81;100.00;98931.09;5106407;28;20418;-92
2022/07/14 08:15:58;;;;;;;7.57;2.53;;;;;;;14.63;100.00;98942.91;5104927;28;20031;-93
2022/07/14 08:18:26;;;;;;;10.30;2.72;;;;;;;14.88;100.00;98937.94;5106949;28;20045;-92
2022/07/14 08:20:52;;;;;;;8.15;2.60;;;;;;;14.49;100.00;98938.78;5106952;28;20687;-93
2022/07/14 08:23:19;;;;;;;11.95;2.88;;;;;;;14.68;100.00;98930.50;5107503;28;20030;-93
2022/07/14 08:25:45;;;;;;;12.20;3.50;;;;;;;14.72;100.00;98937.41;5102777;28;20559;-94
2022/07/14 08:28:11;;;;;;;10.45;2.95;;;;;;;14.89;100.00;98934.41;5101917;28;20058;-93
2022/07/14 08:30:37;;;;;;;12.65;3.45;;;;;;;15.09;100.00;98936.56;5101609;28;20039;-91
2022/07/14 08:33:04;;;;;;;10.70;2.92;;;;;;;15.54;100.00;98927.53;5104173;27;20027;-94
2022/07/14 08:35:31;;;;;;;11.35;3.50;;;;;;;15.49;100.00;98921.50;5100311;28;20032;-95
2022/07/14 08:38:06;;;;;;;8.82;2.72;;;;;;;15.84;100.00;98922.38;5104896;28;20028;-94
2022/07/14 08:40:36;;;;;;;9.02;2.80;;;;;;;16.07;100.00;98912.97;5103043;28;20031;-93
2022/07/14 08:43:03;;;;;;;9.40;2.47;;;;;;;16.04;100.00;98933.19;5104320;28;20062;-92
2022/07/14 08:45:35;;;;;;;8.25;2.40;;;;;;;16.38;100.00;98923.44;5102428;28;20062;-92
2022/07/14 08:48:01;;;;;;;10.40;2.60;;;;;;;17.08;100.00;98916.03;5102484;28;20121;-89
2022/07/14 08:50:28;;;;;;;8.07;2.47;;;;;;;17.13;100.00;98924.66;5099576;28;20032;-89
2022/07/14 08:52:55;;;;;;;10.45;2.40;;;;;;;16.59;100.00;98924.56;5099406;28;20023;-94
2022/07/14 08:55:21;;;;;;;8.27;2.20;;;;;;;16.04;100.00;98932.34;5104283;28;20080;-94
2022/07/14 08:58:15;;;;;;;8.88;2.03;;;;;;;16.45;100.00;98927.63;5103141;28;20145;-94
2022/07/14 09:00:42;;;;;;;10.30;2.42;;;;;;;15.62;100.00;98945.72;5103984;28;20040;-93
2022/07/14 09:03:13;;;;;;;12.70;2.42;;;;;;;15.68;100.00;98938.56;5102114;28;20111;-94
2022/07/14 09:05:42;;;;;;;8.85;2.10;;;;;;;15.92;100.00;98930.94;5112483;28;20087;-92
2022/07/14 09:08:11;;;;;;;8.18;2.00;;;;;;;15.60;100.00;98943.16;5108302;28;20486;-96
2022/07/14 09:10:50;;;;;;;9.95;2.60;;;;;;;15.21;100.00;98927.47;5119027;28;20043;-97
2022/07/14 09:13:24;;;;;;;9.55;2.22;;;;;;;15.98;100.00;98922.84;5102475;28;20140;-96
2022/07/14 09:16:17;;;;;;;10.75;2.00;;;;;;;16.03;100.00;98923.59;5110628;28;20047;-96
2022/07/14 09:19:11;;;;;;;7.97;2.10;;;;;;;16.81;100.00;98924.75;5114936;28;20039;-96
2022/07/14 09:21:53;;;;;;;9.57;1.77;;;;;;;16.60;100.00;98930.69;5109479;28;20035;-96
2022/07/14 09:24:23;;;;;;;13.10;1.97;;;;;;;15.87;100.00;98946.81;5108702;28;20023;-95
2022/07/14 09:26:57;;;;;;;11.27;2.35;;;;;;;15.84;100.00;98953.94;5109520;28;20031;-95
2022/07/14 09:29:30;;;;;;;14.65;2.50;;;;;;;15.86;100.00;98960.00;5108741;28;20039;-96
2022/07/14 09:31:59;;;;;;;11.00;2.03;;;;;;;15.75;100.00;98951.53;5107538;28;20045;-96
2022/07/14 09:34:36;;;;;;;24.17;2.58;;;;;;;15.75;100.00;98965.53;5107395;28;20031;-96
2022/07/14 09:37:16;;;;;;;11.07;1.85;;;;;;;15.84;100.00;98961.84;5101202;28;20035;-96
2022/07/14 09:39:56;;;;;;;6.40;1.33;;;;;;;15.55;100.00;98963.44;5104565;28;20020;-95
2022/07/14 09:42:46;;;;;;;7.03;1.30;;;;;;;15.19;100.00;98958.19;5106491;28;20364;-96
2022/07/14 09:45:14;;;;;;;7.47;1.40;;;;;;;15.11;100.00;98968.03;5106698;28;20024;-96
2022/07/14 09:48:04;;;;;;;6.00;1.42;;;;;;;15.29;100.00;98977.22;5109429;28;20034;-95
2022/07/14 09:50:40;;;;;;;6.35;1.20;;;;;;;15.33;100.00;98984.13;5106104;28;20777;-96
2022/07/14 09:53:22;;;;;;;5.97;1.20;;;;;;;15.28;100.00;98981.63;5107681;28;20028;-95
2022/07/14 09:56:09;;;;;;;6.55;1.38;;;;;;;15.84;100.00;98990.75;5105624;28;20040;-95
2022/07/14 09:58:54;;;;;;;9.75;1.50;;;;;;;15.62;100.00;98982.53;5117178;27;20023;-96
2022/07/14 10:01:21;;;;;;;6.57;1.60;;;;;;;15.75;100.00;98975.19;5097051;28;20173;-96
2022/07/14 10:03:53;;;;;;;4.63;0.95;;;;;;;15.85;100.00;98985.47;5106019;28;20051;-96
2022/07/14 10:06:21;;;;;;;7.25;1.50;;;;;;;16.02;100.00;98984.13;5110311;28;20037;-96
2022/07/14 10:08:53;;;;;;;6.40;1.45;;;;;;;16.24;100.00;98984.38;5118372;27;20357;-96
2022/07/14 10:11:19;;;;;;;6.05;1.30;;;;;;;16.30;100.00;98992.09;5107317;28;20134;-96
2022/07/14 10:13:44;;;;;;;6.45;1.35;;;;;;;16.10;100.00;98979.50;5104673;28;20032;-96
2022/07/14 10:16:10;;;;;;;4.60;1.35;;;;;;;16.16;100.00;99002.19;5107361;28;20020;-96
2022/07/14 10:18:37;;;;;;;5.03;1.25;;;;;;;16.76;100.00;98989.00;5104027;28;20023;-93
2022/07/14 10:21:04;;;;;;;6.07;1.38;;;;;;;16.62;100.00;98990.31;5109159;28;20028;-94
2022/07/14 10:23:30;;;;;;;7.57;1.30;;;;;;;16.60;100.00;98993.88;5109928;28;20027;-94
2022/07/14 10:25:58;;;;;;;8.60;1.40;;;;;;;16.53;100.00;98988.81;5106719;28;20035;-93
2022/07/14 10:28:24;;;;;;;5.65;1.30;;;;;;;16.59;100.00;99000.06;5113121;28;20023;-95
2022/07/14 10:31:17;;;;;;;6.43;1.60;;;;;;;16.44;100.00;99004.03;5096324;28;20028;-95
2022/07/14 10:34:00;;;;;;;10.17;1.83;;;;;;;16.54;100.00;99005.47;5106293;28;20031;-93
2022/07/14 10:36:58;;;;;;;7.90;1.50;;;;;;;16.77;100.00;99001.28;5107508;28;20290;-95
2022/07/14 10:39:39;;;;;;;10.23;1.55;;;;;;;16.70;100.00;99003.22;5106587;28;20027;-95
2022/07/14 10:42:23;;;;;;;6.18;1.23;;;;;;;17.01;100.00;98999.69;5105444;28;20023;-95
2022/07/14 10:44:52;;;;;;;5.82;1.40;;;;;;;16.43;100.00;98997.03;5104221;28;20043;-94
2022/07/14 10:47:41;;;;;;;7.07;1.73;;;;;;;16.92;100.00;99006.09;5101798;28;20039;-94
2022/07/14 10:50:18;;;;;;;8.30;1.90;;;;;;;17.60;100.00;98987.25;5099115;28;20026;-96
2022/07/14 10:53:04;;;;;;;5.75;1.50;;;;;;;17.88;100.00;98997.69;5110417;28;20027;-95
2022/07/14 10:55:30;;;;;;;6.60;1.30;;;;;;;18.37;100.00;98998.59;5105103;28;20066;-94
2022/07/14 10:58:09;;;;;;;6.80;1.40;;;;;;;18.30;100.00;98996.22;5100667;28;20062;-95
2022/07/14 11:00:41;;;;;;;5.40;1.17;;;;;;;18.25;100.00;98993.78;5103157;28;20032;-96
2022/07/14 11:03:32;;;;;;;5.85;1.15;;;;;;;18.02;100.00;99007.78;5104516;28;20016;-96
2022/07/14 11:06:01;;;;;;;6.93;1.30;;;;;;;16.98;100.00;99003.28;5104380;28;20031;-96
2022/07/14 11:08:29;;;;;;;6.88;1.42;;;;;;;16.67;100.00;98987.53;5108005;28;20020;-96
2022/07/14 11:11:25;;;;;;;5.25;1.10;;;;;;;17.12;100.00;98994.94;5109377;28;20507;-94
2022/07/14 11:13:59;;;;;;;6.53;1.23;;;;;;;18.20;100.00;98993.06;5105369;28;20024;-95
2022/07/14 11:16:50;;;;;;;4.78;1.20;;;;;;;18.59;100.00;98982.81;5101967;28;20028;-95
2022/07/14 11:19:20;;;;;;;6.35;1.20;;;;;;;18.46;100.00;98993.91;5102746;28;20028;-95
2022/07/14 11:22:26;;;;;;;5.97;1.02;;;;;;;18.06;100.00;98994.44;5104348;28;20027;-96
2022/07/14 11:24:59;;;;;;;4.72;0.95;;;;;;;18.05;100.00;98984.81;5108780;28;20024;-95
2022/07/14 11:27:34;;;;;;;;;;;;;;;17.91;100.00;98997.59;5117242;28;20143;-95
2022/07/14 11:30:22;;;;;;;6.00;1.17;;;;;;;17.72;100.00;98992.94;5098999;28;19997;-92
2022/07/14 11:33:02;;;;;;;9.32;1.60;;;;;;;17.85;100.00;98996.00;5069500;28;20055;-94
2022/07/14 11:38:40;;;;;;;5.80;1.02;;;;;;;17.44;100.00;98994.78;5082394;28;20085;-93
2022/07/14 11:41:10;;;;;;;6.10;1.33;;;;;;;17.21;100.00;99002.53;5081396;28;20027;-95
2022/07/14 11:43:37;;;;;;;4.97;1.00;;;;;;;17.54;100.00;99006.78;5086353;28;20032;-94
2022/07/14 11:46:09;;;;;;;5.85;1.30;;;;;;;19.08;100.00;98993.25;5079495;28;20031;-94
2022/07/14 11:48:55;;;;;;;5.57;1.13;;;;;;;19.39;100.00;99001.75;5085667;28;20062;-93
2022/07/14 11:51:26;;;;;;;6.60;1.20;;;;;;;19.88;100.00;98998.81;5102131;28;20024;-93